Terminal Aerodrome Forecast
Issued by NWS Jackson, MS

Home | Current Version | Previous Version | Text Only | Print | Product List | Glossary On
Versions: 1 2 3 4 5 6 7 8 9 10 11 12 13
000
FTUS44 KJAN 271738
TAFGWO
TAF
KGWO 271738Z 2718/2818 VRB04KT P6SM OVC019
     FM272000 16005KT P6SM FEW250
     FM281100 17010KT P6SM OVC015=

USA.gov is the U.S. government's official web portal to all federal, state and local government web resources and services.